createdAt,value
2022-11-22T00:01:15.793Z,15.50
2022-11-22T00:03:43.786Z,14.60
2022-11-22T00:06:11.793Z,15.33
2022-11-22T00:08:39.823Z,11.88
2022-11-22T00:11:07.801Z,17.30
2022-11-22T00:13:37.370Z,16.23
2022-11-22T00:16:06.136Z,13.60
2022-11-22T00:18:34.466Z,14.90
2022-11-22T00:21:07.138Z,17.00
2022-11-22T00:23:35.692Z,13.03
2022-11-22T00:26:03.782Z,16.87
2022-11-22T00:28:31.813Z,15.20
2022-11-22T00:31:01.224Z,13.77
2022-11-22T00:33:29.284Z,11.50
2022-11-22T00:35:57.381Z,18.33
2022-11-22T00:38:25.444Z,15.60
2022-11-22T00:40:53.677Z,13.10
2022-11-22T00:43:21.695Z,16.33
2022-11-22T00:45:49.726Z,12.30
2022-11-22T00:48:19.112Z,13.15
2022-11-22T00:50:49.449Z,15.43
2022-11-22T00:53:17.448Z,15.53
2022-11-22T00:55:46.788Z,13.55
2022-11-22T00:58:14.850Z,16.98
2022-11-22T01:00:43.204Z,15.57
2022-11-22T01:03:12.638Z,14.63
2022-11-22T01:05:42.083Z,13.80
2022-11-22T01:08:10.683Z,13.17
2022-11-22T01:10:39.302Z,16.40
2022-11-22T01:13:07.587Z,13.05
2022-11-22T01:15:35.637Z,14.23
2022-11-22T01:18:03.680Z,20.55
2022-11-22T01:20:31.972Z,17.60
2022-11-22T01:23:01.365Z,17.17
2022-11-22T01:25:29.342Z,15.25
2022-11-22T01:27:57.352Z,16.37
2022-11-22T01:30:25.586Z,15.60
2022-11-22T01:32:53.643Z,18.07
2022-11-22T01:35:21.731Z,22.87
2022-11-22T01:37:49.803Z,19.63
2022-11-22T01:40:19.590Z,18.37
2022-11-22T01:42:52.050Z,15.63
2022-11-22T01:45:43.566Z,24.40
2022-11-22T01:48:39.371Z,22.55
2022-11-22T01:51:19.784Z,20.67
2022-11-22T01:53:48.138Z,18.13
2022-11-22T01:56:20.726Z,22.67
2022-11-22T01:58:52.142Z,22.73
2022-11-22T02:01:20.652Z,19.77
2022-11-22T02:03:52.961Z,19.73
2022-11-22T02:06:21.753Z,25.57
2022-11-22T02:08:58.423Z,19.77
2022-11-22T02:11:33.994Z,26.20
2022-11-22T02:14:03.239Z,18.63
2022-11-22T02:16:31.639Z,22.07
2022-11-22T02:18:59.630Z,17.90
2022-11-22T02:21:28.573Z,21.37
2022-11-22T02:24:02.295Z,20.13
2022-11-22T02:26:33.473Z,18.90
2022-11-22T02:29:05.187Z,20.23
2022-11-22T02:31:39.255Z,18.67
2022-11-22T02:34:07.388Z,21.87
2022-11-22T02:36:40.580Z,17.23
2022-11-22T02:39:10.497Z,16.67
2022-11-22T02:41:40.561Z,18.17
2022-11-22T02:44:10.532Z,17.20
2022-11-22T02:46:47.861Z,17.93
2022-11-22T02:49:18.434Z,13.73
2022-11-22T02:51:46.985Z,16.27
2022-11-22T02:54:15.085Z,19.67
2022-11-22T02:56:44.499Z,17.80
2022-11-22T02:59:12.549Z,14.82
2022-11-22T03:01:40.886Z,13.87
2022-11-22T03:04:08.959Z,20.93
2022-11-22T03:06:37.096Z,13.97
2022-11-22T03:09:05.236Z,22.23
2022-11-22T03:11:33.235Z,14.57
2022-11-22T03:14:02.633Z,14.77
2022-11-22T03:16:31.798Z,17.63
2022-11-22T03:19:00.148Z,13.25
2022-11-22T03:21:28.193Z,12.07
2022-11-22T03:23:56.367Z,15.30
2022-11-22T03:26:24.670Z,14.23
2022-11-22T03:28:52.700Z,14.20
2022-11-22T03:31:22.247Z,13.85
2022-11-22T03:33:50.265Z,15.73
2022-11-22T03:36:18.432Z,14.83
2022-11-22T03:38:46.527Z,14.40
2022-11-22T03:41:14.541Z,14.35
2022-11-22T03:43:43.013Z,15.27
2022-11-22T03:46:15.874Z,16.27
2022-11-22T03:48:45.214Z,15.07
2022-11-22T03:51:13.490Z,15.27
2022-11-22T03:53:41.542Z,15.52
2022-11-22T03:56:09.596Z,13.37
2022-11-22T03:58:37.634Z,18.60
2022-11-22T04:01:05.703Z,13.90
2022-11-22T04:03:33.785Z,15.37
2022-11-22T04:06:03.277Z,15.27
2022-11-22T04:08:31.379Z,11.90
2022-11-22T04:10:59.443Z,14.83
2022-11-22T04:13:47.721Z,12.30
2022-11-22T04:16:14.844Z,16.07
2022-11-22T04:18:43.287Z,10.95
2022-11-22T04:21:30.289Z,14.23
2022-11-22T04:24:16.323Z,12.93
2022-11-22T04:26:44.331Z,17.38
2022-11-22T04:29:12.391Z,15.00
2022-11-22T04:31:57.736Z,15.57
2022-11-22T04:34:26.124Z,15.70
2022-11-22T04:36:55.556Z,14.18
2022-11-22T04:39:23.589Z,12.27
2022-11-22T04:42:14.200Z,15.47
2022-11-22T04:44:41.613Z,15.23
2022-11-22T04:47:10.013Z,14.18
2022-11-22T04:49:38.465Z,13.27
2022-11-22T04:52:25.612Z,14.07
2022-11-22T04:54:53.594Z,13.82
2022-11-22T04:57:21.980Z,12.52
2022-11-22T04:59:50.002Z,12.98
2022-11-22T05:02:18.017Z,14.40
2022-11-22T05:04:50.472Z,13.73
2022-11-22T05:07:20.659Z,13.13
2022-11-22T05:09:48.745Z,12.90
2022-11-22T05:12:16.791Z,8.70
2022-11-22T05:14:45.039Z,14.53
2022-11-22T05:17:13.552Z,14.48
2022-11-22T05:19:46.411Z,13.93
2022-11-22T05:22:17.536Z,13.30
2022-11-22T05:24:45.880Z,13.17
2022-11-22T05:27:14.167Z,11.27
2022-11-22T05:29:42.483Z,8.57
2022-11-22T05:32:10.464Z,11.60
2022-11-22T05:34:38.488Z,11.93
2022-11-22T05:37:06.770Z,9.85
2022-11-22T05:39:34.739Z,11.27
2022-11-22T05:42:05.983Z,11.82
2022-11-22T05:44:38.772Z,11.43
2022-11-22T05:47:11.336Z,15.07
2022-11-22T05:49:39.511Z,10.00
2022-11-22T05:52:08.792Z,10.43
2022-11-22T05:54:37.176Z,12.07
2022-11-22T05:57:06.608Z,13.35
2022-11-22T05:59:36.049Z,12.33
2022-11-22T06:02:06.025Z,12.65
2022-11-22T06:04:34.592Z,9.65
2022-11-22T06:07:08.398Z,8.00
2022-11-22T06:09:38.311Z,9.93
2022-11-22T06:12:08.385Z,11.32
2022-11-22T06:14:42.738Z,14.93
2022-11-22T06:17:11.644Z,16.55
2022-11-22T06:19:39.664Z,16.25
2022-11-22T06:22:07.653Z,12.93
2022-11-22T06:24:35.844Z,12.50
2022-11-22T06:27:03.993Z,11.63
2022-11-22T06:29:33.733Z,13.93
2022-11-22T06:32:03.738Z,11.57
2022-11-22T06:34:32.356Z,13.65
2022-11-22T06:37:00.554Z,11.88
2022-11-22T06:39:28.793Z,12.38
2022-11-22T06:41:57.347Z,12.25
2022-11-22T06:44:25.326Z,9.93
2022-11-22T06:46:54.669Z,13.13
2022-11-22T06:49:22.718Z,12.52
2022-11-22T06:51:50.903Z,12.55
2022-11-22T06:54:18.966Z,12.83
2022-11-22T06:56:47.224Z,13.90
2022-11-22T06:59:15.211Z,13.50
2022-11-22T07:01:43.329Z,12.83
2022-11-22T07:04:12.795Z,14.00
2022-11-22T07:06:40.968Z,12.52
2022-11-22T07:09:11.110Z,14.02
2022-11-22T07:11:40.717Z,12.02
2022-11-22T07:14:09.599Z,14.32
2022-11-22T07:16:38.893Z,13.77
2022-11-22T07:19:07.818Z,14.25
2022-11-22T07:21:38.307Z,11.63
2022-11-22T07:24:07.881Z,13.27
2022-11-22T07:26:35.909Z,15.82
2022-11-22T07:29:04.450Z,13.30
2022-11-22T07:31:32.778Z,9.55
2022-11-22T07:34:01.056Z,17.23
2022-11-22T07:36:30.407Z,10.82
2022-11-22T07:38:59.943Z,13.07
2022-11-22T07:41:27.923Z,12.60
2022-11-22T07:43:55.961Z,12.55
2022-11-22T07:46:26.600Z,14.40
2022-11-22T07:48:54.722Z,13.52
2022-11-22T07:51:22.713Z,11.00
2022-11-22T07:53:50.803Z,13.25
2022-11-22T07:56:20.920Z,12.13
2022-11-22T07:58:48.935Z,12.20
2022-11-22T08:01:19.171Z,11.98
2022-11-22T08:03:47.740Z,12.98
2022-11-22T08:06:16.616Z,12.57
2022-11-22T08:08:44.825Z,12.50
2022-11-22T08:11:13.659Z,12.20
2022-11-22T08:13:44.620Z,16.92
2022-11-22T08:16:14.682Z,11.73
2022-11-22T08:18:48.214Z,11.90
2022-11-22T08:21:17.793Z,13.10
2022-11-22T08:23:46.957Z,11.87
2022-11-22T08:26:17.181Z,11.60
2022-11-22T08:28:47.037Z,12.45
2022-11-22T08:31:19.041Z,13.57
2022-11-22T08:33:47.291Z,12.00
2022-11-22T08:36:15.857Z,13.35
2022-11-22T08:38:43.988Z,10.90
2022-11-22T08:41:12.828Z,11.43
2022-11-22T08:43:40.844Z,13.10
2022-11-22T08:46:10.703Z,12.43
2022-11-22T08:48:39.949Z,14.45
2022-11-22T08:51:10.399Z,11.63
2022-11-22T08:53:40.328Z,12.98
2022-11-22T08:56:10.684Z,12.55
2022-11-22T08:58:39.538Z,11.43
2022-11-22T09:01:09.765Z,16.45
2022-11-22T09:03:38.550Z,12.07
2022-11-22T09:09:15.241Z,13.38
2022-11-22T09:11:44.835Z,14.00
2022-11-22T09:14:13.241Z,11.52
2022-11-22T09:16:42.641Z,15.93
2022-11-22T09:19:10.998Z,12.25
2022-11-22T09:21:39.046Z,15.57
2022-11-22T09:24:07.535Z,12.57
2022-11-22T09:26:35.586Z,16.98
2022-11-22T09:29:03.633Z,14.98
2022-11-22T09:31:33.178Z,15.00
2022-11-22T09:34:02.638Z,12.73
2022-11-22T09:36:31.022Z,14.98
2022-11-22T09:38:59.611Z,14.77
2022-11-22T09:41:52.050Z,11.77
2022-11-22T09:44:29.524Z,13.90
2022-11-22T09:47:03.989Z,23.17
2022-11-22T09:49:47.100Z,14.63
2022-11-22T09:52:19.335Z,12.67
2022-11-22T09:54:52.098Z,14.63
2022-11-22T09:57:24.666Z,12.53
2022-11-22T10:00:02.142Z,13.73
2022-11-22T10:02:58.759Z,14.88
2022-11-22T10:05:31.345Z,14.20
2022-11-22T10:08:04.234Z,13.98
2022-11-22T10:10:40.109Z,12.98
2022-11-22T10:13:14.211Z,13.55
2022-11-22T10:15:50.240Z,13.35
2022-11-22T10:18:25.181Z,15.10
2022-11-22T10:20:54.919Z,17.42
2022-11-22T10:23:24.445Z,14.70
2022-11-22T10:25:58.800Z,14.77
2022-11-22T10:28:34.758Z,18.98
2022-11-22T10:31:09.187Z,15.18
2022-11-22T10:33:44.801Z,11.38
2022-11-22T10:36:36.200Z,16.60
2022-11-22T10:39:24.575Z,16.30
2022-11-22T10:42:22.518Z,15.65
2022-11-22T10:44:58.975Z,14.10
2022-11-22T10:47:41.910Z,12.00
2022-11-22T10:50:17.492Z,15.27
2022-11-22T10:52:57.641Z,14.98
2022-11-22T10:55:50.156Z,16.08
2022-11-22T10:58:26.729Z,13.52
2022-11-22T11:01:04.568Z,13.80
2022-11-22T11:03:35.281Z,12.98
2022-11-22T11:06:26.264Z,12.82
2022-11-22T11:09:54.960Z,13.77
2022-11-22T11:11:53.490Z,14.38
2022-11-22T11:14:28.986Z,13.50
2022-11-22T11:16:57.617Z,13.45
2022-11-22T11:19:28.265Z,13.75
2022-11-22T11:22:01.950Z,11.35
2022-11-22T11:24:33.161Z,16.80
2022-11-22T11:27:01.838Z,13.20
2022-11-22T11:29:38.977Z,13.80
2022-11-22T11:32:10.824Z,14.18
2022-11-22T11:34:41.255Z,14.32
2022-11-22T11:37:20.417Z,11.90
2022-11-22T11:39:49.976Z,14.85
2022-11-22T11:42:31.788Z,12.35
2022-11-22T11:45:29.320Z,12.45
2022-11-22T11:47:57.351Z,13.98
2022-11-22T11:50:28.001Z,14.98
2022-11-22T11:52:58.032Z,10.05
2022-11-22T11:55:32.303Z,11.70
2022-11-22T11:58:00.646Z,12.80
2022-11-22T12:00:36.695Z,12.25
2022-11-22T12:03:09.120Z,10.70
2022-11-22T12:05:37.171Z,11.60
2022-11-22T12:08:27.553Z,10.38
2022-11-22T12:11:04.402Z,11.15
2022-11-22T12:13:57.850Z,11.25
2022-11-22T12:16:31.085Z,10.40
2022-11-22T12:19:05.153Z,11.80
2022-11-22T12:21:43.351Z,10.23
2022-11-22T12:27:06.456Z,10.90
2022-11-22T12:29:38.335Z,9.90
2022-11-22T12:32:12.825Z,10.73
2022-11-22T12:34:49.189Z,11.70
2022-11-22T12:37:20.911Z,10.77
2022-11-22T12:39:50.509Z,11.02
2022-11-22T12:42:24.602Z,10.27
2022-11-22T12:44:58.324Z,12.77
2022-11-22T12:47:32.406Z,12.25
2022-11-22T12:50:07.192Z,10.23
2022-11-22T12:52:42.928Z,11.40
2022-11-22T12:55:17.822Z,10.45
2022-11-22T12:57:54.109Z,12.75
2022-11-22T13:00:24.924Z,11.55
2022-11-22T13:03:02.437Z,12.07
2022-11-22T13:05:33.154Z,11.13
2022-11-22T13:08:09.694Z,13.40
2022-11-22T13:10:43.316Z,11.85
2022-11-22T13:13:21.299Z,13.00
2022-11-22T13:15:52.985Z,13.55
2022-11-22T13:18:22.027Z,12.40
2022-11-22T13:20:55.908Z,12.95
2022-11-22T13:23:38.353Z,11.63
2022-11-22T13:26:14.884Z,13.52
2022-11-22T13:28:45.441Z,13.30
2022-11-22T13:31:19.658Z,11.68
2022-11-22T13:33:56.948Z,12.73
2022-11-22T13:36:41.230Z,12.43
2022-11-22T13:39:17.209Z,11.32
2022-11-22T13:41:53.471Z,10.57
2022-11-22T13:44:49.931Z,11.82
2022-11-22T13:47:37.994Z,13.00
2022-11-22T13:50:39.259Z,11.65
2022-11-22T13:53:25.951Z,12.13
2022-11-22T13:55:54.296Z,10.32
2022-11-22T13:59:04.972Z,11.10
2022-11-22T14:02:00.331Z,12.52
2022-11-22T14:04:45.013Z,12.57
2022-11-22T14:07:38.757Z,13.82
2022-11-22T14:10:30.020Z,10.00
2022-11-22T14:13:31.254Z,12.80
2022-11-22T14:16:19.004Z,11.85
2022-11-22T14:18:59.381Z,13.60
2022-11-22T14:21:46.997Z,12.32
2022-11-22T14:24:27.992Z,11.55
2022-11-22T14:27:01.868Z,11.25
2022-11-22T14:30:04.223Z,11.43
2022-11-22T14:32:44.002Z,12.18
2022-11-22T14:35:29.007Z,10.93
2022-11-22T14:38:20.148Z,12.98
2022-11-22T14:40:48.168Z,11.15
2022-11-22T14:43:33.999Z,10.15
2022-11-22T14:46:30.482Z,9.88
2022-11-22T14:49:03.405Z,9.55
2022-11-22T14:51:34.057Z,10.63
2022-11-22T14:54:05.533Z,9.07
2022-11-22T14:56:35.682Z,13.18
2022-11-22T14:59:16.904Z,8.70
2022-11-22T15:02:31.434Z,8.95
2022-11-22T15:09:09.898Z,10.82
2022-11-22T15:09:21.285Z,9.52
2022-11-22T15:11:35.639Z,9.73
2022-11-22T15:14:45.565Z,8.35
2022-11-22T15:57:34.753Z,12.07
2022-11-22T16:00:03.817Z,11.45
2022-11-22T16:02:33.189Z,10.63
2022-11-22T16:06:08.767Z,8.32
2022-11-22T16:07:52.578Z,10.48
2022-11-22T16:10:23.017Z,10.32
2022-11-22T16:12:53.794Z,10.77
2022-11-22T16:15:29.053Z,10.68
2022-11-22T16:18:07.965Z,10.10
2022-11-22T16:20:37.320Z,11.50
2022-11-22T16:23:17.538Z,9.30
2022-11-22T16:25:48.793Z,9.88
2022-11-22T16:28:36.684Z,8.07
2022-11-22T16:31:08.527Z,9.77
2022-11-22T16:33:37.069Z,10.13
2022-11-22T16:36:10.655Z,9.25
2022-11-22T16:38:38.932Z,9.13
2022-11-22T16:41:13.516Z,9.18
2022-11-22T16:43:43.347Z,9.43
2022-11-22T16:46:15.228Z,10.45
2022-11-22T16:48:44.553Z,10.63
2022-11-22T16:51:15.425Z,10.57
2022-11-22T16:53:45.733Z,10.90
2022-11-22T16:56:19.629Z,9.30
2022-11-22T16:58:50.047Z,9.63
2022-11-22T17:01:20.294Z,10.15
2022-11-22T17:03:50.795Z,9.88
2022-11-22T17:06:20.371Z,10.15
2022-11-22T17:08:50.146Z,10.77
2022-11-22T17:11:20.521Z,11.93
2022-11-22T17:13:50.065Z,10.88
2022-11-22T17:16:19.164Z,11.85
2022-11-22T17:18:48.169Z,11.13
2022-11-22T17:21:22.094Z,10.93
2022-11-22T17:23:50.649Z,11.18
2022-11-22T17:26:18.723Z,11.07
2022-11-22T17:28:46.776Z,11.57
2022-11-22T17:31:17.992Z,10.40
2022-11-22T17:33:46.033Z,11.40
2022-11-22T17:36:22.768Z,11.48
2022-11-22T17:38:50.828Z,9.85
2022-11-22T17:41:18.941Z,12.23
2022-11-22T17:43:48.283Z,11.27
2022-11-22T17:46:17.989Z,11.27
2022-11-22T17:49:03.969Z,10.63
2022-11-22T17:51:32.800Z,10.30
2022-11-22T17:54:02.448Z,9.95
2022-11-22T17:56:32.627Z,9.93
2022-11-22T17:59:03.745Z,11.95
2022-11-22T18:01:34.231Z,10.70
2022-11-22T18:04:02.242Z,11.20
2022-11-22T18:06:31.410Z,10.48
2022-11-22T18:09:00.402Z,10.90
2022-11-22T18:11:28.475Z,10.57
2022-11-22T18:13:56.696Z,12.10
2022-11-22T18:16:32.479Z,12.63
2022-11-22T18:19:02.388Z,8.80
2022-11-22T18:21:32.039Z,10.65
2022-11-22T18:24:00.788Z,10.35
2022-11-22T18:26:39.378Z,9.88
2022-11-22T18:31:57.212Z,11.20
2022-11-22T18:34:27.898Z,9.73
2022-11-22T18:37:00.893Z,10.18
2022-11-22T18:39:31.334Z,11.07
2022-11-22T18:41:59.821Z,11.07
2022-11-22T18:44:28.097Z,10.83
2022-11-22T18:46:56.309Z,10.17
2022-11-22T18:49:25.859Z,9.50
2022-11-22T18:51:53.991Z,9.03
2022-11-22T18:54:22.869Z,9.02
2022-11-22T18:56:51.566Z,10.80
2022-11-22T18:59:19.831Z,9.57
2022-11-22T19:01:48.048Z,10.45
2022-11-22T19:04:17.176Z,10.18
2022-11-22T19:06:46.919Z,8.97
2022-11-22T19:09:15.184Z,8.60
2022-11-22T19:11:43.361Z,9.87
2022-11-22T19:14:11.390Z,10.10
2022-11-22T19:16:39.481Z,10.13
2022-11-22T19:19:08.421Z,10.23
2022-11-22T19:21:36.941Z,10.13
2022-11-22T19:24:07.218Z,9.90
2022-11-22T19:26:35.414Z,9.60
2022-11-22T19:29:04.943Z,9.75
2022-11-22T19:31:33.778Z,10.43
2022-11-22T19:34:01.830Z,9.32
2022-11-22T19:36:33.634Z,9.63
2022-11-22T19:39:03.639Z,11.07
2022-11-22T19:41:33.392Z,9.40
2022-11-22T19:44:01.549Z,10.27
2022-11-22T19:46:30.546Z,9.82
2022-11-22T19:48:59.861Z,9.37
2022-11-22T19:51:29.438Z,9.45
2022-11-22T19:53:59.488Z,10.83
2022-11-22T19:56:30.261Z,10.13
2022-11-22T19:59:01.557Z,9.80
2022-11-22T20:01:31.232Z,9.53
2022-11-22T20:04:00.970Z,10.27
2022-11-22T20:06:29.697Z,10.97
2022-11-22T20:09:02.336Z,9.37
2022-11-22T20:11:30.599Z,10.07
2022-11-22T20:14:00.069Z,9.73
2022-11-22T20:16:29.700Z,11.55
2022-11-22T20:18:59.486Z,10.07
2022-11-22T20:21:29.423Z,9.88
2022-11-22T20:23:57.868Z,10.03
2022-11-22T20:26:26.940Z,9.32
2022-11-22T20:29:00.243Z,11.53
2022-11-22T20:31:30.613Z,9.13
2022-11-22T20:34:00.747Z,11.10
2022-11-22T20:36:30.455Z,10.17
2022-11-22T20:38:58.851Z,11.83
2022-11-22T20:41:30.230Z,10.23
2022-11-22T20:43:59.757Z,10.27
2022-11-22T20:46:29.342Z,9.15
2022-11-22T20:48:58.981Z,9.10
2022-11-22T20:51:29.119Z,10.00
2022-11-22T20:53:57.833Z,9.67
2022-11-22T20:56:26.251Z,8.83
2022-11-22T20:58:54.572Z,9.73
2022-11-22T21:01:25.932Z,9.07
2022-11-22T21:03:54.717Z,9.98
2022-11-22T21:06:24.538Z,9.25
2022-11-22T21:08:52.866Z,11.43
2022-11-22T21:11:24.192Z,9.40
2022-11-22T21:13:53.138Z,10.00
2022-11-22T21:16:24.863Z,9.97
2022-11-22T21:18:54.080Z,9.53
2022-11-22T21:21:23.958Z,9.23
2022-11-22T21:23:53.501Z,9.30
2022-11-22T21:26:21.957Z,10.23
2022-11-22T21:28:50.397Z,10.67
2022-11-22T21:31:19.451Z,9.17
2022-11-22T21:33:49.329Z,10.17
2022-11-22T21:36:17.778Z,9.97
2022-11-22T21:38:45.947Z,9.65
2022-11-22T21:44:04.852Z,10.70
2022-11-22T21:46:33.156Z,10.00
2022-11-22T21:49:02.763Z,10.13
2022-11-22T21:51:31.933Z,10.93
2022-11-22T21:54:00.606Z,8.93
2022-11-22T21:56:29.544Z,9.07
2022-11-22T21:58:57.870Z,8.55
2022-11-22T22:01:25.983Z,9.07
2022-11-22T22:03:54.583Z,8.75
2022-11-22T22:06:25.135Z,7.70
2022-11-22T22:08:53.216Z,6.57
2022-11-22T22:11:21.368Z,7.57
2022-11-22T22:13:49.422Z,7.85
2022-11-22T22:16:19.268Z,7.30
2022-11-22T22:18:48.154Z,7.53
2022-11-22T22:21:17.743Z,8.17
2022-11-22T22:23:47.749Z,6.78
2022-11-22T22:26:17.249Z,7.90
2022-11-22T22:28:46.206Z,8.57
2022-11-22T22:31:17.062Z,8.67
2022-11-22T22:33:46.618Z,7.17
2022-11-22T22:36:15.251Z,7.37
2022-11-22T22:38:43.385Z,7.30
2022-11-22T22:41:14.463Z,7.83
2022-11-22T22:43:44.390Z,7.60
2022-11-22T22:46:14.771Z,6.60
2022-11-22T22:48:43.542Z,6.20
2022-11-22T22:51:14.658Z,7.23
2022-11-22T22:53:43.535Z,5.80
2022-11-22T22:56:14.903Z,7.17
2022-11-22T22:58:43.419Z,7.83
2022-11-22T23:01:14.633Z,7.43
2022-11-22T23:03:42.861Z,7.33
2022-11-22T23:06:12.668Z,7.30
2022-11-22T23:08:41.526Z,5.53
2022-11-22T23:11:10.889Z,6.90
2022-11-22T23:13:42.510Z,6.63
2022-11-22T23:16:12.557Z,6.93
2022-11-22T23:18:43.053Z,6.87
2022-11-22T23:21:13.197Z,6.97
2022-11-22T23:23:41.446Z,6.53
2022-11-22T23:26:10.857Z,6.80
2022-11-22T23:28:40.647Z,7.83
2022-11-22T23:31:10.612Z,8.70
2022-11-22T23:33:38.969Z,8.30
2022-11-22T23:36:09.294Z,6.80
2022-11-22T23:38:37.828Z,7.70
2022-11-22T23:41:06.341Z,7.97
2022-11-22T23:43:34.887Z,7.57
2022-11-22T23:46:04.331Z,7.10
2022-11-22T23:48:32.427Z,6.80
2022-11-22T23:51:05.149Z,6.53
2022-11-22T23:53:33.134Z,5.97
2022-11-22T23:56:06.589Z,5.00
2022-11-22T23:58:34.993Z,5.60
